createdAt,value
2019-03-31T00:01:15.264Z,28.67
2019-03-31T00:03:42.496Z,30.08
2019-03-31T00:06:09.810Z,30.02
2019-03-31T00:08:37.141Z,36.50
2019-03-31T00:11:04.569Z,36.15
2019-03-31T00:13:31.895Z,34.75
2019-03-31T00:15:59.306Z,32.20
2019-03-31T00:18:26.645Z,34.13
2019-03-31T00:20:53.855Z,32.55
2019-03-31T00:23:21.191Z,33.50
2019-03-31T00:25:50.765Z,33.80
2019-03-31T00:28:18.210Z,33.30
2019-03-31T00:30:45.588Z,34.78
2019-03-31T00:33:12.928Z,35.28
2019-03-31T00:35:40.147Z,33.58
2019-03-31T00:38:07.475Z,34.03
2019-03-31T00:40:34.695Z,34.05
2019-03-31T00:43:02.037Z,32.38
2019-03-31T00:45:29.333Z,32.73
2019-03-31T00:47:56.561Z,31.93
2019-03-31T00:50:23.863Z,30.35
2019-03-31T00:52:51.190Z,31.85
2019-03-31T00:55:18.491Z,32.42
2019-03-31T00:57:45.842Z,33.78
2019-03-31T01:00:36.402Z,30.70
2019-03-31T01:03:04.177Z,31.10
2019-03-31T01:05:31.890Z,31.37
2019-03-31T01:08:00.317Z,33.55
2019-03-31T01:10:28.945Z,33.95
2019-03-31T01:12:57.184Z,33.20
2019-03-31T01:15:24.979Z,32.83
2019-03-31T01:17:52.294Z,32.95
2019-03-31T01:20:19.708Z,32.17
2019-03-31T01:22:47.296Z,33.73
2019-03-31T01:25:15.830Z,30.92
2019-03-31T01:27:43.087Z,32.00
2019-03-31T01:30:11.577Z,35.05
2019-03-31T01:32:39.090Z,31.20
2019-03-31T01:35:09.046Z,32.83
2019-03-31T01:37:37.011Z,35.08
2019-03-31T01:40:04.427Z,33.33
2019-03-31T01:42:31.886Z,33.00
2019-03-31T01:44:59.226Z,37.00
2019-03-31T01:47:26.584Z,39.13
2019-03-31T01:49:53.893Z,39.50
2019-03-31T01:52:21.251Z,46.40
2019-03-31T01:54:48.615Z,45.30
2019-03-31T01:57:15.948Z,46.70
2019-03-31T01:59:43.299Z,50.52
2019-03-31T02:02:15.132Z,50.10
2019-03-31T02:04:42.488Z,51.98
2019-03-31T02:07:10.125Z,54.63
2019-03-31T02:09:37.490Z,54.85
2019-03-31T02:12:04.813Z,59.42
2019-03-31T02:14:32.160Z,52.33
2019-03-31T02:16:59.498Z,54.50
2019-03-31T02:19:26.868Z,57.10
2019-03-31T02:21:54.213Z,52.08
2019-03-31T02:24:21.576Z,53.10
2019-03-31T02:26:49.006Z,46.77
2019-03-31T02:29:16.359Z,42.20
2019-03-31T02:31:43.709Z,40.08
2019-03-31T02:34:11.052Z,38.20
2019-03-31T02:36:38.391Z,41.37
2019-03-31T02:39:07.221Z,39.48
2019-03-31T02:41:35.534Z,38.95
2019-03-31T02:44:03.386Z,42.58
2019-03-31T02:46:30.707Z,42.17
2019-03-31T02:48:58.049Z,38.75
2019-03-31T02:51:25.852Z,41.10
2019-03-31T02:53:53.707Z,41.25
2019-03-31T02:56:21.912Z,39.35
2019-03-31T02:58:50.918Z,40.12
2019-03-31T03:01:21.178Z,40.60
2019-03-31T03:03:50.323Z,41.25
2019-03-31T03:06:19.913Z,45.05
2019-03-31T03:09:12.526Z,40.48
2019-03-31T03:11:41.560Z,44.03
2019-03-31T03:14:09.670Z,45.63
2019-03-31T03:16:37.012Z,46.63
2019-03-31T03:19:04.339Z,51.68
2019-03-31T03:21:31.684Z,47.13
2019-03-31T03:23:58.918Z,51.13
2019-03-31T03:26:26.248Z,48.35
2019-03-31T03:28:53.654Z,53.20
2019-03-31T03:31:21.130Z,55.15
2019-03-31T03:33:48.521Z,69.05
2019-03-31T03:36:15.965Z,56.25
2019-03-31T03:38:43.545Z,44.80
2019-03-31T03:41:10.885Z,45.58
2019-03-31T03:43:54.104Z,45.73
2019-03-31T03:46:07.488Z,52.03
2019-03-31T03:48:34.846Z,59.83
2019-03-31T03:51:02.193Z,69.77
2019-03-31T03:53:29.503Z,69.03
2019-03-31T03:55:56.865Z,65.70
2019-03-31T03:58:24.191Z,64.15
2019-03-31T04:00:51.411Z,67.30
2019-03-31T04:03:29.818Z,68.83
2019-03-31T04:05:47.833Z,61.05
2019-03-31T04:08:15.153Z,63.13
2019-03-31T04:11:31.208Z,44.75
2019-03-31T04:13:58.528Z,48.33
2019-03-31T04:16:26.072Z,53.60
2019-03-31T04:18:53.378Z,57.27
2019-03-31T04:21:20.723Z,59.23
2019-03-31T04:23:48.103Z,61.80
2019-03-31T04:26:15.418Z,59.35
2019-03-31T04:28:43.402Z,62.98
2019-03-31T04:31:10.746Z,62.23
2019-03-31T04:33:50.637Z,60.33
2019-03-31T04:36:07.270Z,61.42
2019-03-31T04:38:34.575Z,59.25
2019-03-31T04:41:01.893Z,61.40
2019-03-31T04:43:29.113Z,65.37
2019-03-31T04:45:56.342Z,62.27
2019-03-31T04:48:23.572Z,60.25
2019-03-31T04:50:52.264Z,61.05
2019-03-31T04:53:19.727Z,58.42
2019-03-31T04:55:47.029Z,55.73
2019-03-31T04:58:14.413Z,57.20
2019-03-31T05:00:41.747Z,57.85
2019-03-31T05:03:09.059Z,57.73
2019-03-31T05:05:36.271Z,58.35
2019-03-31T05:08:03.973Z,57.05
2019-03-31T05:10:31.178Z,60.60
2019-03-31T05:12:58.401Z,59.45
2019-03-31T05:15:25.732Z,55.67
2019-03-31T05:17:53.089Z,54.03
2019-03-31T05:20:20.404Z,54.53
2019-03-31T05:22:47.732Z,55.78
2019-03-31T05:25:15.043Z,56.95
2019-03-31T05:27:42.417Z,54.13
2019-03-31T05:30:09.856Z,59.45
2019-03-31T05:32:37.050Z,58.85
2019-03-31T05:35:04.765Z,60.85
2019-03-31T05:37:32.080Z,62.13
2019-03-31T05:39:59.296Z,63.45
2019-03-31T05:42:26.508Z,65.17
2019-03-31T05:44:53.820Z,66.97
2019-03-31T05:47:21.080Z,67.45
2019-03-31T05:49:48.392Z,68.45
2019-03-31T05:52:15.733Z,66.00
2019-03-31T05:54:43.037Z,65.72
2019-03-31T05:57:10.405Z,63.40
2019-03-31T05:59:37.616Z,61.55
2019-03-31T06:02:05.149Z,62.40
2019-03-31T06:04:33.620Z,56.88
2019-03-31T06:07:01.119Z,55.23
2019-03-31T06:09:28.425Z,58.90
2019-03-31T06:11:55.764Z,56.68
2019-03-31T06:14:23.110Z,54.63
2019-03-31T06:16:50.421Z,49.85
2019-03-31T06:19:17.657Z,51.23
2019-03-31T06:21:45.019Z,51.73
2019-03-31T06:24:12.293Z,46.48
2019-03-31T06:26:39.625Z,40.50
2019-03-31T06:29:06.828Z,40.23
2019-03-31T06:31:34.080Z,38.10
2019-03-31T06:34:01.426Z,38.33
2019-03-31T06:36:28.739Z,40.20
2019-03-31T06:38:56.288Z,39.27
2019-03-31T06:41:23.519Z,37.28
2019-03-31T06:43:51.853Z,35.10
2019-03-31T06:46:19.184Z,34.92
2019-03-31T06:48:46.436Z,34.03
2019-03-31T06:51:16.925Z,33.63
2019-03-31T06:53:42.879Z,32.83
2019-03-31T06:56:10.207Z,31.57
2019-03-31T06:58:37.456Z,27.30
2019-03-31T07:01:04.673Z,28.15
2019-03-31T07:03:32.048Z,27.45
2019-03-31T07:05:59.368Z,26.42
2019-03-31T07:08:26.703Z,26.80
2019-03-31T07:10:54.059Z,25.40
2019-03-31T07:13:21.296Z,24.52
2019-03-31T07:15:48.609Z,22.60
2019-03-31T07:18:16.107Z,24.80
2019-03-31T07:20:43.544Z,22.10
2019-03-31T07:23:10.900Z,20.75
2019-03-31T07:25:38.203Z,19.42
2019-03-31T07:28:05.582Z,21.17
2019-03-31T07:30:32.900Z,20.92
2019-03-31T07:33:00.222Z,22.62
2019-03-31T07:35:27.546Z,21.55
2019-03-31T07:37:54.874Z,20.65
2019-03-31T07:40:22.672Z,21.35
2019-03-31T07:42:51.244Z,18.98
2019-03-31T07:45:19.236Z,16.77
2019-03-31T07:47:46.465Z,16.17
2019-03-31T07:50:14.668Z,16.45
2019-03-31T07:52:41.889Z,16.10
2019-03-31T07:55:09.741Z,15.43
2019-03-31T07:57:37.094Z,15.00
2019-03-31T08:00:05.969Z,15.05
2019-03-31T08:02:33.163Z,14.75
2019-03-31T08:05:00.481Z,14.18
2019-03-31T08:07:27.711Z,15.13
2019-03-31T08:09:54.918Z,12.63
2019-03-31T08:12:22.154Z,13.43
2019-03-31T08:14:49.466Z,14.13
2019-03-31T08:17:16.803Z,13.03
2019-03-31T08:19:44.123Z,12.80
2019-03-31T08:22:11.448Z,12.70
2019-03-31T08:24:44.155Z,13.98
2019-03-31T08:27:14.598Z,11.43
2019-03-31T08:29:42.286Z,11.63
2019-03-31T08:32:09.820Z,12.65
2019-03-31T08:34:37.592Z,12.50
2019-03-31T08:37:05.002Z,11.83
2019-03-31T08:39:32.438Z,12.25
2019-03-31T08:41:59.655Z,11.28
2019-03-31T08:44:26.878Z,15.15
2019-03-31T08:46:54.195Z,12.80
2019-03-31T08:49:21.619Z,11.28
2019-03-31T08:51:48.965Z,14.90
2019-03-31T08:54:16.204Z,12.28
2019-03-31T08:56:43.440Z,13.08
2019-03-31T08:59:10.785Z,14.25
2019-03-31T09:01:38.093Z,11.40
2019-03-31T09:04:05.332Z,10.55
2019-03-31T09:06:32.632Z,10.08
2019-03-31T09:08:59.951Z,10.08
2019-03-31T09:11:27.160Z,9.48
2019-03-31T09:13:54.475Z,9.03
2019-03-31T09:16:21.787Z,9.83
2019-03-31T09:18:49.139Z,9.80
2019-03-31T09:21:16.474Z,8.80
2019-03-31T09:23:43.802Z,9.60
2019-03-31T09:26:11.124Z,10.32
2019-03-31T09:28:38.450Z,10.10
2019-03-31T09:31:05.762Z,9.68
2019-03-31T09:33:33.103Z,9.43
2019-03-31T09:36:00.412Z,9.78
2019-03-31T09:38:27.746Z,10.03
2019-03-31T09:40:55.068Z,9.63
2019-03-31T09:43:22.401Z,8.98
2019-03-31T09:45:49.725Z,9.33
2019-03-31T09:48:16.963Z,9.48
2019-03-31T09:50:44.276Z,9.30
2019-03-31T09:53:11.588Z,9.08
2019-03-31T09:55:38.923Z,9.98
2019-03-31T09:58:06.250Z,10.98
2019-03-31T10:00:44.419Z,9.50
2019-03-31T10:03:11.935Z,10.38
2019-03-31T10:05:39.277Z,10.68
2019-03-31T10:08:06.570Z,11.35
2019-03-31T10:10:34.196Z,10.43
2019-03-31T10:13:01.409Z,11.05
2019-03-31T10:15:28.740Z,10.60
2019-03-31T10:17:56.045Z,10.58
2019-03-31T10:20:23.399Z,9.33
2019-03-31T10:22:50.716Z,7.55
2019-03-31T10:25:18.037Z,7.78
2019-03-31T10:27:45.256Z,7.53
2019-03-31T10:30:14.382Z,7.67
2019-03-31T10:32:41.603Z,6.12
2019-03-31T10:35:09.042Z,9.30
2019-03-31T10:37:36.359Z,6.87
2019-03-31T10:40:05.527Z,8.00
2019-03-31T10:42:32.950Z,7.55
2019-03-31T10:45:00.422Z,6.17
2019-03-31T10:47:27.815Z,6.03
2019-03-31T10:49:55.151Z,6.33
2019-03-31T10:52:22.498Z,6.45
2019-03-31T10:54:49.825Z,6.47
2019-03-31T10:57:17.139Z,5.60
2019-03-31T10:59:44.468Z,6.00
2019-03-31T11:02:11.794Z,5.60
2019-03-31T11:04:39.028Z,5.50
2019-03-31T11:07:06.339Z,5.42
2019-03-31T11:09:34.508Z,5.72
2019-03-31T11:12:01.914Z,6.67
2019-03-31T11:14:29.259Z,6.58
2019-03-31T11:16:56.572Z,5.92
2019-03-31T11:19:23.910Z,6.33
2019-03-31T11:22:16.597Z,5.85
2019-03-31T11:24:43.843Z,5.97
2019-03-31T11:27:11.060Z,5.70
2019-03-31T11:29:38.292Z,5.58
2019-03-31T11:32:05.577Z,5.87
2019-03-31T11:34:32.930Z,6.15
2019-03-31T11:37:12.824Z,5.40
2019-03-31T11:39:29.387Z,6.00
2019-03-31T11:41:56.599Z,4.42
2019-03-31T11:44:23.796Z,6.45
2019-03-31T11:46:51.129Z,4.65
2019-03-31T11:49:18.431Z,4.45
2019-03-31T11:51:45.665Z,4.42
2019-03-31T11:54:12.866Z,4.00
2019-03-31T11:56:40.196Z,3.87
2019-03-31T11:59:07.531Z,4.30
2019-03-31T12:01:34.752Z,4.47
2019-03-31T12:04:02.086Z,4.92
2019-03-31T12:06:29.385Z,4.10
2019-03-31T12:08:56.723Z,3.62
2019-03-31T12:11:24.059Z,5.17
2019-03-31T12:13:51.289Z,4.42
2019-03-31T12:16:18.632Z,4.30
2019-03-31T12:18:45.963Z,3.95
2019-03-31T12:21:13.188Z,5.37
2019-03-31T12:23:40.508Z,4.12
2019-03-31T12:26:07.855Z,3.70
2019-03-31T12:28:35.307Z,3.10
2019-03-31T12:31:02.623Z,3.17
2019-03-31T12:33:29.960Z,3.08
2019-03-31T12:35:57.259Z,2.85
2019-03-31T12:38:24.480Z,3.20
2019-03-31T12:40:51.722Z,3.15
2019-03-31T12:43:19.292Z,3.85
2019-03-31T12:45:46.612Z,2.83
2019-03-31T12:48:13.828Z,2.52
2019-03-31T12:50:41.061Z,2.85
2019-03-31T12:53:08.269Z,3.05
2019-03-31T12:55:35.573Z,2.27
2019-03-31T12:58:02.942Z,2.12
2019-03-31T13:00:30.213Z,2.37
2019-03-31T13:02:57.438Z,2.40
2019-03-31T13:05:24.753Z,2.20
2019-03-31T13:07:56.753Z,2.17
2019-03-31T13:10:21.298Z,2.25
2019-03-31T13:12:48.632Z,2.33
2019-03-31T13:15:15.955Z,3.52
2019-03-31T13:17:43.088Z,2.70
2019-03-31T13:20:10.698Z,4.42
2019-03-31T13:22:38.043Z,2.75
2019-03-31T13:25:05.947Z,2.45
2019-03-31T13:27:33.282Z,2.52
2019-03-31T13:30:00.519Z,3.02
2019-03-31T13:32:27.840Z,2.58
2019-03-31T13:34:55.172Z,2.05
2019-03-31T13:37:22.393Z,2.87
2019-03-31T13:39:49.713Z,2.95
2019-03-31T13:42:16.952Z,2.35
2019-03-31T13:44:44.262Z,2.25
2019-03-31T13:47:11.603Z,2.27
2019-03-31T13:49:38.807Z,2.10
2019-03-31T13:52:06.153Z,2.80
2019-03-31T13:54:33.782Z,2.30
2019-03-31T13:57:01.152Z,2.62
2019-03-31T13:59:28.557Z,2.25
2019-03-31T14:01:55.880Z,2.37
2019-03-31T14:04:23.225Z,2.27
2019-03-31T14:06:50.459Z,2.27
2019-03-31T14:09:17.655Z,2.20
2019-03-31T14:11:48.382Z,1.77
2019-03-31T14:14:14.390Z,1.82
2019-03-31T14:16:41.728Z,1.90
2019-03-31T14:19:09.047Z,2.22
2019-03-31T14:21:36.278Z,2.60
2019-03-31T14:24:03.722Z,2.58
2019-03-31T14:26:30.959Z,2.15
2019-03-31T14:28:58.196Z,2.83
2019-03-31T14:34:06.547Z,2.83
2019-03-31T14:36:33.855Z,2.33
2019-03-31T14:39:01.192Z,2.17
2019-03-31T14:41:28.511Z,2.40
2019-03-31T14:43:55.858Z,1.70
2019-03-31T14:46:23.176Z,2.50
2019-03-31T14:48:50.511Z,1.90
2019-03-31T14:51:17.730Z,2.17
2019-03-31T14:53:45.059Z,2.65
2019-03-31T14:56:12.357Z,2.25
2019-03-31T14:58:39.605Z,2.25
2019-03-31T15:01:06.917Z,2.37
2019-03-31T15:03:34.147Z,2.00
2019-03-31T15:06:01.447Z,1.85
2019-03-31T15:08:28.776Z,2.10
2019-03-31T15:10:56.087Z,1.90
2019-03-31T15:13:23.327Z,1.77
2019-03-31T15:15:50.534Z,1.47
2019-03-31T15:18:17.875Z,1.67
2019-03-31T15:20:45.198Z,2.10
2019-03-31T15:23:12.777Z,1.50
2019-03-31T15:25:43.152Z,2.15
2019-03-31T15:30:37.268Z,2.02
2019-03-31T15:33:04.617Z,1.67
2019-03-31T15:38:14.424Z,1.87
2019-03-31T15:40:41.733Z,1.80
2019-03-31T15:43:09.065Z,1.82
2019-03-31T15:45:56.014Z,1.57
2019-03-31T15:48:24.310Z,1.47
2019-03-31T15:50:51.646Z,1.98
2019-03-31T15:53:38.229Z,1.90
2019-03-31T15:56:06.096Z,2.12
2019-03-31T15:58:33.451Z,2.20
2019-03-31T16:01:00.550Z,2.10
2019-03-31T16:03:27.760Z,2.40
2019-03-31T16:05:54.944Z,1.70
2019-03-31T16:08:21.742Z,1.75
2019-03-31T16:10:48.398Z,2.02
2019-03-31T16:13:15.203Z,1.98
2019-03-31T16:15:41.877Z,2.15
2019-03-31T16:18:08.546Z,2.33
2019-03-31T16:20:35.346Z,2.30
2019-03-31T16:23:02.028Z,2.80
2019-03-31T16:25:34.127Z,1.77
2019-03-31T16:28:00.797Z,1.70
2019-03-31T16:30:27.784Z,2.30
2019-03-31T16:32:54.554Z,2.40
2019-03-31T16:35:21.337Z,2.30
2019-03-31T16:37:48.114Z,2.72
2019-03-31T16:40:14.951Z,2.05
2019-03-31T16:42:41.726Z,1.60
2019-03-31T16:45:08.625Z,2.00
2019-03-31T16:47:35.415Z,1.90
2019-03-31T16:50:02.436Z,1.87
2019-03-31T16:52:29.120Z,2.00
2019-03-31T16:54:55.839Z,2.02
2019-03-31T16:57:22.542Z,2.25
2019-03-31T16:59:49.156Z,2.77
2019-03-31T17:02:15.831Z,2.00
2019-03-31T17:04:42.636Z,2.33
2019-03-31T17:07:09.441Z,3.15
2019-03-31T17:09:36.116Z,1.80
2019-03-31T17:12:02.925Z,2.80
2019-03-31T17:14:29.600Z,2.00
2019-03-31T17:16:56.399Z,1.80
2019-03-31T17:19:23.095Z,1.62
2019-03-31T17:21:49.780Z,2.02
2019-03-31T17:24:16.480Z,1.87
2019-03-31T17:26:43.160Z,1.65
2019-03-31T17:29:09.961Z,1.65
2019-03-31T17:31:36.739Z,2.20
2019-03-31T17:34:03.522Z,1.72
2019-03-31T17:36:30.107Z,1.85
2019-03-31T17:38:56.771Z,1.80
2019-03-31T17:41:23.474Z,1.62
2019-03-31T17:43:50.267Z,2.50
2019-03-31T17:46:16.962Z,1.62
2019-03-31T17:48:43.522Z,1.77
2019-03-31T17:51:10.617Z,2.02
2019-03-31T17:53:37.294Z,2.05
2019-03-31T17:56:05.125Z,1.80
2019-03-31T17:58:31.910Z,1.45
2019-03-31T18:00:58.611Z,1.70
2019-03-31T18:03:25.275Z,1.85
2019-03-31T18:05:52.069Z,2.15
2019-03-31T18:08:18.881Z,1.90
2019-03-31T18:10:45.560Z,2.27
2019-03-31T18:13:12.366Z,1.70
2019-03-31T18:15:39.155Z,1.70
2019-03-31T18:18:05.821Z,2.25
2019-03-31T18:20:32.518Z,2.33
2019-03-31T18:22:59.196Z,1.62
2019-03-31T18:25:25.976Z,1.77
2019-03-31T18:27:52.567Z,2.83
2019-03-31T18:30:19.464Z,1.62
2019-03-31T18:32:46.130Z,1.80
2019-03-31T18:35:16.478Z,1.42
2019-03-31T18:37:41.470Z,1.95
2019-03-31T18:40:08.256Z,1.55
2019-03-31T18:42:35.028Z,2.00
2019-03-31T18:45:01.832Z,1.75
2019-03-31T18:47:28.542Z,1.80
2019-03-31T18:49:55.330Z,1.22
2019-03-31T18:52:24.003Z,1.80
2019-03-31T18:55:03.832Z,1.82
2019-03-31T18:57:52.945Z,2.00
2019-03-31T19:00:29.234Z,1.90
2019-03-31T19:03:33.880Z,1.70
2019-03-31T19:06:25.368Z,1.87
2019-03-31T19:09:06.876Z,1.65
2019-03-31T19:11:56.134Z,1.82
2019-03-31T19:14:32.603Z,1.50
2019-03-31T19:17:17.207Z,1.85
2019-03-31T19:20:03.665Z,1.95
2019-03-31T19:22:48.567Z,1.62
2019-03-31T19:25:50.092Z,1.47
2019-03-31T19:28:33.977Z,2.40
2019-03-31T19:31:24.537Z,1.85
2019-03-31T19:34:09.730Z,2.25
2019-03-31T19:36:53.170Z,1.90
2019-03-31T19:39:45.305Z,1.80
2019-03-31T19:42:31.758Z,2.55
2019-03-31T19:45:16.753Z,2.37
2019-03-31T19:48:06.184Z,2.35
2019-03-31T19:50:48.292Z,3.25
2019-03-31T19:53:50.085Z,2.00
2019-03-31T19:56:48.612Z,2.90
2019-03-31T19:59:52.625Z,2.45
2019-03-31T20:02:50.280Z,2.70
2019-03-31T20:05:39.697Z,1.92
2019-03-31T20:08:35.302Z,2.72
2019-03-31T20:11:24.450Z,2.25
2019-03-31T20:14:04.681Z,2.37
2019-03-31T20:16:56.199Z,2.75
2019-03-31T20:19:33.902Z,2.15
2019-03-31T20:22:05.884Z,2.10
2019-03-31T20:24:58.586Z,2.47
2019-03-31T20:27:47.674Z,1.87
2019-03-31T20:30:22.919Z,2.17
2019-03-31T20:33:07.718Z,1.82
2019-03-31T20:36:09.390Z,2.58
2019-03-31T20:39:07.874Z,2.22
2019-03-31T20:41:56.695Z,2.05
2019-03-31T20:44:23.365Z,1.98
2019-03-31T20:46:49.969Z,2.25
2019-03-31T20:49:16.561Z,1.50
2019-03-31T20:51:43.275Z,1.95
2019-03-31T20:54:09.955Z,1.92
2019-03-31T20:56:36.667Z,2.20
2019-03-31T20:59:03.463Z,1.87
2019-03-31T21:01:30.124Z,1.70
2019-03-31T21:03:56.828Z,2.08
2019-03-31T21:06:23.495Z,2.40
2019-03-31T21:08:50.315Z,2.02
2019-03-31T21:11:17.019Z,1.80
2019-03-31T21:13:43.834Z,2.17
2019-03-31T21:16:10.520Z,2.17
2019-03-31T21:18:37.111Z,1.82
2019-03-31T21:21:03.896Z,2.60
2019-03-31T21:23:30.984Z,2.25
2019-03-31T21:25:57.773Z,1.95
2019-03-31T21:28:24.369Z,1.95
2019-03-31T21:30:51.172Z,2.05
2019-03-31T21:33:17.983Z,2.05
2019-03-31T21:35:44.661Z,1.95
2019-03-31T21:38:11.350Z,2.05
2019-03-31T21:40:38.119Z,1.50
2019-03-31T21:43:04.815Z,1.37
2019-03-31T21:45:31.489Z,1.35
2019-03-31T21:47:58.187Z,2.00
2019-03-31T21:50:24.967Z,1.50
2019-03-31T21:52:51.577Z,1.90
2019-03-31T21:55:18.263Z,3.12
2019-03-31T21:57:44.858Z,1.90
2019-03-31T22:00:12.136Z,1.75
2019-03-31T22:02:38.933Z,1.65
2019-03-31T22:05:05.965Z,1.47
2019-03-31T22:07:32.763Z,3.17
2019-03-31T22:09:59.337Z,3.05
2019-03-31T22:12:25.940Z,2.55
2019-03-31T22:14:52.609Z,1.50
2019-03-31T22:17:19.398Z,1.80
2019-03-31T22:19:45.985Z,1.75
2019-03-31T22:22:12.761Z,2.17
2019-03-31T22:24:39.569Z,2.35
2019-03-31T22:27:06.242Z,2.00
2019-03-31T22:29:33.121Z,1.95
2019-03-31T22:31:59.834Z,1.52
2019-03-31T22:34:26.643Z,1.90
2019-03-31T22:36:53.335Z,1.82
2019-03-31T22:39:19.989Z,1.80
2019-03-31T22:41:46.727Z,1.87
2019-03-31T22:44:13.428Z,1.98
2019-03-31T22:46:53.410Z,1.92
2019-03-31T22:49:08.619Z,1.98
2019-03-31T22:51:35.292Z,1.80
2019-03-31T22:54:02.091Z,1.65
2019-03-31T22:56:28.792Z,1.80
2019-03-31T22:58:55.497Z,1.72
2019-03-31T23:01:22.295Z,1.50
2019-03-31T23:03:49.147Z,1.40
2019-03-31T23:06:15.807Z,1.87
2019-03-31T23:08:42.580Z,1.37
2019-03-31T23:11:09.373Z,1.77
2019-03-31T23:13:35.965Z,1.65
2019-03-31T23:16:02.751Z,1.95
2019-03-31T23:18:29.446Z,2.50
2019-03-31T23:20:56.221Z,2.20
2019-03-31T23:23:23.020Z,1.72
2019-03-31T23:25:49.698Z,1.92
2019-03-31T23:28:16.418Z,2.00
2019-03-31T23:30:43.310Z,1.30
2019-03-31T23:33:10.088Z,1.42
2019-03-31T23:35:36.779Z,1.98
2019-03-31T23:38:03.457Z,1.72
2019-03-31T23:40:30.243Z,1.25
2019-03-31T23:42:56.822Z,2.00
2019-03-31T23:45:23.610Z,1.80
2019-03-31T23:47:50.384Z,3.17
2019-03-31T23:50:17.184Z,1.67
2019-03-31T23:52:43.883Z,1.90
2019-03-31T23:55:10.786Z,2.10
2019-03-31T23:57:40.950Z,1.98
